createdAt,value
2018-07-28T00:00:30.901Z,58.00
2018-07-28T00:01:04.001Z,58.00
2018-07-28T00:01:37.110Z,58.40
2018-07-28T00:02:10.363Z,57.90
2018-07-28T00:02:43.501Z,58.10
2018-07-28T00:03:17.607Z,58.10
2018-07-28T00:03:53.364Z,58.00
2018-07-28T00:04:26.027Z,58.00
2018-07-28T00:04:58.604Z,57.90
2018-07-28T00:05:31.692Z,58.60
2018-07-28T00:06:05.096Z,58.00
2018-07-28T00:06:44.447Z,57.90
2018-07-28T06:01:48.986Z,64.30
2018-07-28T06:05:20.032Z,63.50
2018-07-28T06:05:56.740Z,62.70
2018-07-28T06:06:30.913Z,63.00
2018-07-28T06:07:54.031Z,63.20
2018-07-28T06:08:26.588Z,63.20
2018-07-28T06:08:59.573Z,63.30
2018-07-28T06:09:32.620Z,62.40
2018-07-28T06:10:06.465Z,61.30
2018-07-28T06:10:39.558Z,61.30
2018-07-28T06:11:12.576Z,62.00
2018-07-28T06:11:45.633Z,61.20
2018-07-28T06:12:19.457Z,61.60
2018-07-28T06:12:52.495Z,62.50
2018-07-28T06:13:26.299Z,61.70
2018-07-28T06:13:59.344Z,61.60
2018-07-28T06:14:32.400Z,62.00
2018-07-28T06:15:06.407Z,61.50
2018-07-28T06:15:40.224Z,60.60
2018-07-28T06:16:14.043Z,60.60
2018-07-28T06:16:47.087Z,60.60
2018-07-28T06:17:19.708Z,60.50
2018-07-28T06:17:52.244Z,59.90
2018-07-28T06:18:24.773Z,60.00
2018-07-28T06:18:58.071Z,59.60
2018-07-28T06:19:31.015Z,59.60
2018-07-28T06:20:04.065Z,59.60
2018-07-28T06:20:37.080Z,59.60
2018-07-28T06:21:10.889Z,59.60
2018-07-28T06:21:45.427Z,59.60
2018-07-28T06:22:18.016Z,59.60
2018-07-28T06:22:50.960Z,59.50
2018-07-28T06:23:23.563Z,59.40
2018-07-28T06:23:56.843Z,59.00
2018-07-28T06:24:29.323Z,59.00
2018-07-28T06:25:01.888Z,60.40
2018-07-28T06:25:35.876Z,60.00
2018-07-28T06:26:09.136Z,60.00
2018-07-28T06:26:41.646Z,60.00
2018-07-28T06:27:15.374Z,60.20
2018-07-28T06:27:48.431Z,60.60
2018-07-28T06:28:22.209Z,59.60
2018-07-28T06:28:55.250Z,59.60
2018-07-28T06:29:28.271Z,59.50
2018-07-28T06:30:01.320Z,60.20
2018-07-28T06:30:35.136Z,60.50
2018-07-28T06:31:08.180Z,60.50
2018-07-28T06:31:42.003Z,61.10
2018-07-28T06:32:15.014Z,61.10
2018-07-28T06:32:49.265Z,60.60
2018-07-28T06:33:22.971Z,60.50
2018-07-28T06:33:55.995Z,61.10
2018-07-28T06:34:29.048Z,61.00
2018-07-28T06:35:02.096Z,62.00
2018-07-28T06:35:35.120Z,63.10
2018-07-28T06:36:09.359Z,62.60
2018-07-28T06:36:42.350Z,62.40
2018-07-28T06:37:15.374Z,63.50
2018-07-28T06:37:48.400Z,63.70
2018-07-28T06:38:21.428Z,62.30
2018-07-28T06:38:54.460Z,62.20
2018-07-28T06:39:27.542Z,60.80
2018-07-28T06:40:00.561Z,62.10
2018-07-28T06:40:33.591Z,61.60
2018-07-28T06:41:06.630Z,60.80
2018-07-28T06:41:39.673Z,61.20
2018-07-28T06:42:12.728Z,61.30
2018-07-28T06:42:45.763Z,61.30
2018-07-28T06:43:18.799Z,60.80
2018-07-28T06:43:51.829Z,61.20
2018-07-28T06:44:24.868Z,62.40
2018-07-28T06:44:58.688Z,61.40
2018-07-28T06:45:33.304Z,61.40
2018-07-28T06:46:06.354Z,61.30
2018-07-28T06:46:40.160Z,62.50
2018-07-28T06:47:13.203Z,62.50
2018-07-28T06:47:46.215Z,63.00
2018-07-28T06:48:19.255Z,62.50
2018-07-28T06:48:53.049Z,62.40
2018-07-28T06:49:26.090Z,62.40
2018-07-28T06:49:59.136Z,63.10
2018-07-28T06:50:32.188Z,63.30
2018-07-28T06:51:05.986Z,63.40
2018-07-28T06:51:39.763Z,62.20
2018-07-28T06:52:13.566Z,62.30
2018-07-28T06:52:46.608Z,62.30
2018-07-28T06:53:19.638Z,63.20
2018-07-28T06:53:52.672Z,63.40
2018-07-28T06:54:27.635Z,61.90
2018-07-28T06:55:00.867Z,61.90
2018-07-28T06:55:35.335Z,62.30
2018-07-28T06:56:08.351Z,61.90
2018-07-28T06:56:41.380Z,62.10
2018-07-28T06:57:14.424Z,62.50
2018-07-28T06:57:49.349Z,62.90
2018-07-28T06:58:21.955Z,62.80
2018-07-28T06:58:54.464Z,63.10
2018-07-28T06:59:26.994Z,63.20
2018-07-28T07:00:00.260Z,64.80
2018-07-28T07:00:32.765Z,64.70
2018-07-28T07:01:05.275Z,64.70
2018-07-28T07:01:37.775Z,65.10
2018-07-28T07:02:10.296Z,65.60
2018-07-28T07:02:42.850Z,65.10
2018-07-28T07:03:16.242Z,64.10
2018-07-28T07:03:49.602Z,63.60
2018-07-28T07:04:22.519Z,63.60
2018-07-28T07:04:55.006Z,64.60
2018-07-28T07:05:27.536Z,64.70
2018-07-28T07:06:00.069Z,64.30
2018-07-28T07:06:32.587Z,65.20
2018-07-28T07:07:05.572Z,65.10
2018-07-28T07:07:38.951Z,64.00
2018-07-28T07:08:11.456Z,64.00
2018-07-28T07:08:43.967Z,65.00
2018-07-28T07:09:16.468Z,65.30
2018-07-28T07:09:48.978Z,65.30
2018-07-28T07:10:22.283Z,66.20
2018-07-28T07:10:54.790Z,66.30
2018-07-28T07:11:27.295Z,65.10
2018-07-28T07:11:59.808Z,64.90
2018-07-28T07:12:32.330Z,65.00
2018-07-28T07:13:04.862Z,65.30
2018-07-28T07:13:37.372Z,65.70
2018-07-28T07:14:09.892Z,65.60
2018-07-28T07:14:42.398Z,65.50
2018-07-28T07:15:14.964Z,65.50
2018-07-28T07:15:47.469Z,65.40
2018-07-28T07:16:19.972Z,65.30
2018-07-28T07:16:52.484Z,65.30
2018-07-28T07:17:25.012Z,65.60
2018-07-28T07:17:57.511Z,65.50
2018-07-28T07:18:30.025Z,65.90
2018-07-28T07:19:03.559Z,65.90
2018-07-28T07:19:36.079Z,66.00
2018-07-28T07:20:08.635Z,66.50
2018-07-28T07:20:42.755Z,67.00
2018-07-28T07:21:15.269Z,67.00
2018-07-28T07:21:48.551Z,67.40
2018-07-28T07:22:22.507Z,67.40
2018-07-28T07:22:55.007Z,67.40
2018-07-28T07:23:28.281Z,67.90
2018-07-28T07:24:02.989Z,68.10
2018-07-28T07:24:35.492Z,68.10
2018-07-28T07:25:08.007Z,67.70
2018-07-28T07:25:40.523Z,68.10
2018-07-28T07:26:13.027Z,67.70
2018-07-28T07:26:45.535Z,67.60
2018-07-28T07:27:18.062Z,67.40
2018-07-28T07:27:50.562Z,66.90
2018-07-28T07:28:23.084Z,67.20
2018-07-28T07:28:55.592Z,67.40
2018-07-28T07:29:28.094Z,67.60
2018-07-28T07:30:00.610Z,67.60
2018-07-28T07:30:33.423Z,67.50
2018-07-28T07:31:06.639Z,67.60
2018-07-28T07:31:39.943Z,67.30
2018-07-28T07:32:12.440Z,67.30
2018-07-28T07:32:44.943Z,67.70
2018-07-28T07:33:18.236Z,67.80
2018-07-28T07:33:51.588Z,67.90
2018-07-28T07:34:25.003Z,67.90
2018-07-28T07:34:57.967Z,67.70
2018-07-28T07:35:31.023Z,67.40
2018-07-28T07:36:04.098Z,67.70
2018-07-28T07:36:37.112Z,67.80
2018-07-28T07:37:09.715Z,67.80
2018-07-28T07:37:42.229Z,67.80
2018-07-28T07:38:14.753Z,68.10
2018-07-28T07:38:48.127Z,68.00
2018-07-28T07:39:20.643Z,68.30
2018-07-28T07:39:53.142Z,68.40
2018-07-28T07:40:26.463Z,67.70
2018-07-28T07:40:59.747Z,66.50
2018-07-28T07:41:33.040Z,66.10
2018-07-28T07:42:05.547Z,66.10
2018-07-28T07:42:38.059Z,66.60
2018-07-28T07:43:10.554Z,66.40
2018-07-28T07:43:43.068Z,66.90
2018-07-28T07:44:16.340Z,66.60
2018-07-28T07:44:48.864Z,66.50
2018-07-28T07:45:21.344Z,66.30
2018-07-28T07:45:53.842Z,66.20
2018-07-28T07:46:26.348Z,66.00
2018-07-28T07:46:58.859Z,65.60
2018-07-28T07:47:32.470Z,65.40
2018-07-28T07:48:04.939Z,65.30
2018-07-28T07:48:37.436Z,65.50
2018-07-28T07:49:09.968Z,65.70
2018-07-28T07:49:42.491Z,65.00
2018-07-28T07:50:16.492Z,65.80
2018-07-28T07:50:49.771Z,65.70
2018-07-28T07:51:23.044Z,65.70
2018-07-28T07:51:56.302Z,66.00
2018-07-28T07:52:28.829Z,65.60
2018-07-28T07:53:01.328Z,65.60
2018-07-28T07:53:33.832Z,65.60
2018-07-28T07:54:07.095Z,65.90
2018-07-28T07:54:40.368Z,65.60
2018-07-28T07:55:12.871Z,65.60
2018-07-28T07:55:46.232Z,66.10
2018-07-28T07:56:18.704Z,67.10
2018-07-28T07:56:51.659Z,67.70
2018-07-28T07:57:25.259Z,67.50
2018-07-28T07:57:57.756Z,68.10
2018-07-28T07:58:30.279Z,68.10
2018-07-28T07:59:02.789Z,68.90
2018-07-28T07:59:35.288Z,68.10
2018-07-28T08:00:08.622Z,69.00
2018-07-28T08:00:41.139Z,69.00
2018-07-28T08:01:14.433Z,70.30
2018-07-28T08:01:47.622Z,70.40
2018-07-28T08:02:20.560Z,70.20
2018-07-28T08:02:53.611Z,70.30
2018-07-28T08:03:27.476Z,70.00
2018-07-28T08:04:01.108Z,70.80
2018-07-28T08:04:33.735Z,72.20
2018-07-28T08:05:06.228Z,72.20
2018-07-28T08:05:38.727Z,73.90
2018-07-28T08:06:11.226Z,73.60
2018-07-28T08:06:43.761Z,74.30
2018-07-28T08:07:18.117Z,73.50
2018-07-28T08:07:51.119Z,73.20
2018-07-28T08:08:25.536Z,73.60
2018-07-28T08:08:58.564Z,73.60
2018-07-28T08:09:31.587Z,73.80
2018-07-28T08:10:05.413Z,73.90
2018-07-28T08:10:38.441Z,74.00
2018-07-28T08:11:11.482Z,73.80
2018-07-28T08:11:44.530Z,73.60
2018-07-28T08:12:18.323Z,73.50
2018-07-28T08:12:51.343Z,73.50
2018-07-28T08:13:24.383Z,73.40
2018-07-28T08:13:57.424Z,73.60
2018-07-28T08:14:30.448Z,73.70
2018-07-28T08:15:03.704Z,73.30
2018-07-28T08:15:36.751Z,73.50
2018-07-28T08:16:10.571Z,73.80
2018-07-28T08:16:43.831Z,73.80
2018-07-28T08:17:17.614Z,73.80
2018-07-28T08:17:51.426Z,73.70
2018-07-28T08:18:25.248Z,74.20
2018-07-28T08:18:58.272Z,74.20
2018-07-28T08:19:32.080Z,74.80
2018-07-28T08:20:05.909Z,74.70
2018-07-28T08:20:38.963Z,74.70
2018-07-28T08:21:11.994Z,74.90
2018-07-28T08:21:45.044Z,74.40
2018-07-28T08:22:18.071Z,74.20
2018-07-28T08:22:52.728Z,75.30
2018-07-28T08:23:25.737Z,75.20
2018-07-28T08:23:58.789Z,74.80
2018-07-28T08:24:31.843Z,74.70
2018-07-28T08:25:04.871Z,74.10
2018-07-28T08:25:38.687Z,74.90
2018-07-28T08:26:12.502Z,74.40
2018-07-28T08:26:45.595Z,74.40
2018-07-28T08:27:19.705Z,74.40
2018-07-28T08:27:52.692Z,74.40
2018-07-28T08:28:25.733Z,73.20
2018-07-28T08:28:59.617Z,73.00
2018-07-28T08:29:32.653Z,72.70
2018-07-28T08:30:06.468Z,72.60
2018-07-28T08:30:39.524Z,72.60
2018-07-28T08:31:13.330Z,72.50
2018-07-28T08:31:46.371Z,72.40
2018-07-28T08:32:19.392Z,72.30
2018-07-28T08:32:52.425Z,72.50
2018-07-28T08:33:26.469Z,72.50
2018-07-28T08:34:01.161Z,72.70
2018-07-28T08:34:34.210Z,72.70
2018-07-28T08:35:07.246Z,72.30
2018-07-28T08:35:40.332Z,72.20
2018-07-28T08:36:13.371Z,71.90
2018-07-28T08:36:46.951Z,71.90
2018-07-28T08:37:19.975Z,71.70
2018-07-28T08:37:53.061Z,71.60
2018-07-28T08:38:26.048Z,71.30
2018-07-28T08:38:59.090Z,71.30
2018-07-28T08:39:32.116Z,71.20
2018-07-28T08:40:05.982Z,71.50
2018-07-28T08:40:39.711Z,71.50
2018-07-28T08:41:12.755Z,71.50
2018-07-28T08:41:46.568Z,71.50
2018-07-28T08:42:20.369Z,71.40
2018-07-28T08:42:54.179Z,71.30
2018-07-28T08:43:27.215Z,71.20
2018-07-28T08:44:01.020Z,71.20
2018-07-28T08:44:34.811Z,71.40
2018-07-28T08:45:08.589Z,71.80
2018-07-28T08:45:42.400Z,71.60
2018-07-28T08:46:16.254Z,71.60
2018-07-28T08:46:49.524Z,71.40
2018-07-28T08:47:22.554Z,72.10
2018-07-28T08:47:55.640Z,72.00
2018-07-28T08:48:28.664Z,71.80
2018-07-28T08:49:01.751Z,72.10
2018-07-28T08:49:34.831Z,72.20
2018-07-28T08:50:07.792Z,72.30
2018-07-28T08:50:40.840Z,72.50
2018-07-28T08:51:13.915Z,72.70
2018-07-28T08:51:46.984Z,72.60
2018-07-28T08:52:21.023Z,72.60
2018-07-28T08:52:54.066Z,72.30
2018-07-28T08:53:27.307Z,72.40
2018-07-28T08:54:00.342Z,72.80
2018-07-28T08:54:33.408Z,72.70
2018-07-28T08:55:06.401Z,73.00
2018-07-28T08:55:39.518Z,73.20
2018-07-28T08:56:12.475Z,73.30
2018-07-28T08:56:46.279Z,74.00
2018-07-28T08:57:19.310Z,73.40
2018-07-28T08:57:52.352Z,73.40
2018-07-28T08:58:26.282Z,73.50
2018-07-28T08:58:59.316Z,73.50
2018-07-28T08:59:32.365Z,73.40
2018-07-28T09:00:05.431Z,73.60
2018-07-28T09:00:38.465Z,73.60
2018-07-28T09:01:11.497Z,73.90
2018-07-28T09:01:44.540Z,73.80
2018-07-28T09:02:17.555Z,73.90
2018-07-28T09:02:50.602Z,73.90
2018-07-28T09:03:23.856Z,74.40
2018-07-28T09:03:56.887Z,73.80
2018-07-28T09:04:29.939Z,73.40
2018-07-28T09:05:03.769Z,73.50
2018-07-28T09:05:36.827Z,73.50
2018-07-28T09:06:09.881Z,73.60
2018-07-28T09:06:43.684Z,73.50
2018-07-28T09:07:16.709Z,73.40
2018-07-28T09:07:49.760Z,73.40
2018-07-28T09:08:22.776Z,73.20
2018-07-28T09:08:55.814Z,73.10
2018-07-28T09:09:28.844Z,73.20
2018-07-28T09:10:01.878Z,73.40
2018-07-28T09:10:34.925Z,73.40
2018-07-28T09:11:08.712Z,73.20
2018-07-28T09:11:41.745Z,73.20
2018-07-28T09:12:15.893Z,73.10
2018-07-28T09:12:48.842Z,73.10
2018-07-28T09:13:21.866Z,73.10
2018-07-28T09:13:54.969Z,73.20
2018-07-28T09:14:28.773Z,74.00
2018-07-28T09:15:02.554Z,73.20
2018-07-28T09:15:36.347Z,72.90
2018-07-28T09:16:10.152Z,72.70
2018-07-28T09:16:43.188Z,72.70
2018-07-28T09:17:16.227Z,72.70
2018-07-28T09:17:49.270Z,73.10
2018-07-28T09:18:23.073Z,72.90
2018-07-28T09:18:56.128Z,72.90
2018-07-28T09:19:29.919Z,72.60
2018-07-28T09:20:04.000Z,73.30
2018-07-28T09:20:36.979Z,73.20
2018-07-28T09:21:10.031Z,72.10
2018-07-28T09:21:43.089Z,73.20
2018-07-28T09:22:17.048Z,73.30
2018-07-28T09:22:51.570Z,72.40
2018-07-28T09:23:26.624Z,72.20
2018-07-28T09:23:59.582Z,72.10
2018-07-28T09:24:32.596Z,72.50
2018-07-28T09:25:05.673Z,72.30
2018-07-28T09:25:38.701Z,72.10
2018-07-28T09:26:11.765Z,72.20
2018-07-28T09:26:45.571Z,72.10
2018-07-28T09:27:18.619Z,72.10
2018-07-28T09:27:52.404Z,73.00
2018-07-28T09:28:26.200Z,73.40
2018-07-28T09:29:00.015Z,72.50
2018-07-28T09:29:33.047Z,72.40
2018-07-28T09:30:06.278Z,72.40
2018-07-28T09:44:20.317Z,72.30
2018-07-28T09:44:53.435Z,70.60
2018-07-28T09:45:26.522Z,70.10
2018-07-28T09:46:00.378Z,70.10
2018-07-28T09:46:32.992Z,70.10
2018-07-28T09:47:05.600Z,70.00
2018-07-28T09:47:38.096Z,70.20
2018-07-28T09:48:10.613Z,70.00
2018-07-28T09:48:43.164Z,70.00
2018-07-28T09:49:15.712Z,70.40
2018-07-28T09:49:48.271Z,70.20
2018-07-28T09:50:21.264Z,70.40
2018-07-28T09:50:53.947Z,70.00
2018-07-28T09:51:26.976Z,69.10
2018-07-28T09:52:01.400Z,68.50
2018-07-28T09:52:34.452Z,68.40
2018-07-28T09:53:07.529Z,68.50
2018-07-28T09:53:40.596Z,68.40
2018-07-28T09:54:14.177Z,68.10
2018-07-28T09:54:47.240Z,68.00
2018-07-28T09:55:20.303Z,68.20
2018-07-28T09:55:53.368Z,68.10
2018-07-28T09:56:26.478Z,68.10
2018-07-28T09:56:59.561Z,68.00
2018-07-28T09:57:32.608Z,68.10
2018-07-28T09:58:05.665Z,68.00
2018-07-28T09:58:38.750Z,67.50
2018-07-28T09:59:11.817Z,67.50
2018-07-28T09:59:45.685Z,67.50
2018-07-28T10:00:18.756Z,67.60
2018-07-28T10:00:51.837Z,68.00
2018-07-28T10:01:24.908Z,67.20
2018-07-28T10:01:57.957Z,67.20
2018-07-28T10:02:30.936Z,66.50
2018-07-28T10:03:03.495Z,66.20
2018-07-28T10:03:36.580Z,67.30
2018-07-28T10:04:09.558Z,65.20
2018-07-28T10:04:42.918Z,64.40
2018-07-28T10:05:16.220Z,64.40
2018-07-28T10:05:49.164Z,64.40
2018-07-28T10:06:21.776Z,63.80
2018-07-28T10:07:42.109Z,63.80
2018-07-28T10:08:15.264Z,64.30
2018-07-28T10:08:48.680Z,64.10
2018-07-28T10:09:21.663Z,64.00
2018-07-28T10:09:55.476Z,62.70
2018-07-28T10:10:28.549Z,62.70
2018-07-28T10:11:01.640Z,63.00
2018-07-28T10:11:35.282Z,62.20
2018-07-28T10:12:08.339Z,63.10
2018-07-28T10:12:42.612Z,62.00
2018-07-28T10:13:15.674Z,62.00
2018-07-28T10:13:50.312Z,61.60
2018-07-28T10:14:23.621Z,61.50
2018-07-28T10:14:56.676Z,60.80
2018-07-28T10:15:29.751Z,62.30
2018-07-28T10:16:02.783Z,61.40
2018-07-28T10:16:35.900Z,60.80
2018-07-28T10:17:08.973Z,60.90
2018-07-28T10:17:42.020Z,59.80
2018-07-28T10:18:15.059Z,61.60
2018-07-28T10:18:48.105Z,60.80
2018-07-28T10:19:24.661Z,59.60
2018-07-28T10:19:57.734Z,60.10
2018-07-28T10:20:30.785Z,59.60
2018-07-28T10:21:04.611Z,63.20
2018-07-28T10:21:37.689Z,62.70
2018-07-28T10:22:11.061Z,61.10
2018-07-28T10:22:44.160Z,59.70
2018-07-28T10:23:17.164Z,60.30
2018-07-28T10:23:51.223Z,60.10
2018-07-28T10:24:23.822Z,59.50
2018-07-28T10:24:56.351Z,59.50
2018-07-28T10:25:28.988Z,59.10
2018-07-28T10:26:01.531Z,59.10
2018-07-28T10:26:37.721Z,58.90
2018-07-28T10:27:10.262Z,59.10
2018-07-28T10:27:44.863Z,59.50
2018-07-28T10:28:17.378Z,58.10
2018-07-28T10:28:50.360Z,58.60
2018-07-28T10:29:24.165Z,59.40
2018-07-28T10:29:57.996Z,58.70
2018-07-28T10:30:31.641Z,58.70
2018-07-28T10:31:05.458Z,58.70
2018-07-28T10:31:38.537Z,58.70
2018-07-28T10:32:11.576Z,58.80
2018-07-28T10:32:45.383Z,59.20
2018-07-28T10:33:18.441Z,59.10
2018-07-28T10:33:51.492Z,59.10
2018-07-28T10:34:24.106Z,59.30
2018-07-28T10:34:56.763Z,59.20
2018-07-28T10:35:29.764Z,59.50
2018-07-28T10:36:03.589Z,59.50
2018-07-28T10:36:36.662Z,59.50
2018-07-28T10:37:09.714Z,59.40
2018-07-28T10:37:42.743Z,59.30
2018-07-28T10:38:16.559Z,58.80
2018-07-28T10:38:49.616Z,58.80
2018-07-28T10:39:22.684Z,58.80
2018-07-28T10:39:56.513Z,59.10
2018-07-28T10:40:30.325Z,59.20
2018-07-28T10:41:03.382Z,59.70
2018-07-28T10:41:36.424Z,59.30
2018-07-28T10:42:09.484Z,59.30
2018-07-28T10:42:42.524Z,59.00
2018-07-28T10:43:15.573Z,58.80
2018-07-28T10:43:48.965Z,58.70
2018-07-28T10:44:22.219Z,59.10
2018-07-28T10:44:55.265Z,58.90
2018-07-28T10:45:28.319Z,58.90
2018-07-28T10:46:02.169Z,58.60
2018-07-28T10:46:36.100Z,58.50
2018-07-28T10:47:09.175Z,58.70
2018-07-28T10:47:42.217Z,58.60
2018-07-28T10:48:15.276Z,58.70
2018-07-28T10:48:48.333Z,58.80
2018-07-28T10:49:22.298Z,59.00
2018-07-28T10:49:55.336Z,59.00
2018-07-28T10:50:28.395Z,59.20
2018-07-28T10:51:01.452Z,59.20
2018-07-28T10:51:34.511Z,59.10
2018-07-28T10:52:07.551Z,59.10
2018-07-28T10:52:40.592Z,59.20
2018-07-28T10:53:14.395Z,59.60
2018-07-28T10:53:48.212Z,59.80
2018-07-28T10:54:21.272Z,59.80
2018-07-28T10:54:54.319Z,60.00
2018-07-28T10:55:27.384Z,60.00
2018-07-28T10:56:00.394Z,60.30
2018-07-28T10:56:33.449Z,60.30
2018-07-28T10:57:07.272Z,60.40
2018-07-28T10:57:40.321Z,60.40
2018-07-28T10:58:14.142Z,60.60
2018-07-28T10:58:47.912Z,59.80
2018-07-28T10:59:21.045Z,59.80
2018-07-28T10:59:54.092Z,60.50
2018-07-28T11:00:27.167Z,60.60
2018-07-28T11:01:00.948Z,59.80
2018-07-28T11:01:34.008Z,59.70
2018-07-28T11:02:07.845Z,59.40
2018-07-28T11:02:40.898Z,59.40
2018-07-28T11:03:13.933Z,59.50
2018-07-28T11:03:47.765Z,59.30
2018-07-28T11:04:20.811Z,59.20
2018-07-28T11:04:54.641Z,58.90
2018-07-28T11:05:27.683Z,58.90
2018-07-28T11:06:00.735Z,58.70
2018-07-28T11:06:33.792Z,58.60
2018-07-28T11:07:06.859Z,58.50
2018-07-28T11:07:39.902Z,58.30
2018-07-28T11:08:12.939Z,58.50
2018-07-28T11:08:45.993Z,58.70
2018-07-28T11:09:19.025Z,58.80
2018-07-28T11:09:52.068Z,58.50
2018-07-28T11:10:25.161Z,58.10
2018-07-28T11:10:58.983Z,58.30
2018-07-28T11:11:32.796Z,58.20
2018-07-28T11:12:06.720Z,58.20
2018-07-28T11:12:39.791Z,59.10
2018-07-28T11:13:12.868Z,58.40
2018-07-28T11:13:45.921Z,58.30
2018-07-28T11:14:18.984Z,58.30
2018-07-28T11:14:52.029Z,58.40
2018-07-28T11:15:25.085Z,58.80
2018-07-28T11:15:58.143Z,58.60
2018-07-28T11:16:31.194Z,58.80
2018-07-28T11:17:04.498Z,59.00
2018-07-28T11:17:37.544Z,58.30
2018-07-28T11:18:11.397Z,57.10
2018-07-28T11:18:45.253Z,58.10
2018-07-28T11:19:18.244Z,58.10
2018-07-28T11:19:52.937Z,57.60
2018-07-28T11:20:25.982Z,57.60
2018-07-28T11:20:59.064Z,57.10
2018-07-28T11:21:32.116Z,57.70
2018-07-28T11:22:05.164Z,55.90
2018-07-28T11:22:39.015Z,56.70
2018-07-28T11:23:12.196Z,56.70
2018-07-28T11:23:45.246Z,56.80
2018-07-28T11:24:18.289Z,56.80
2018-07-28T11:24:52.132Z,57.10
2018-07-28T11:25:25.196Z,57.00
2018-07-28T11:25:58.273Z,57.00
2018-07-28T11:26:31.292Z,56.50
2018-07-28T11:27:04.354Z,56.30
2018-07-28T11:27:37.429Z,56.00
2018-07-28T11:28:10.456Z,55.60
2018-07-28T11:28:43.499Z,55.50
2018-07-28T11:29:17.319Z,55.60
2018-07-28T11:29:51.095Z,55.60
2018-07-28T11:30:24.885Z,55.70
2018-07-28T11:30:58.693Z,55.60
2018-07-28T11:33:05.221Z,55.90
2018-07-28T11:33:50.244Z,56.50
2018-07-28T11:34:45.103Z,55.90
2018-07-28T11:35:30.096Z,55.70
2018-07-28T11:37:21.733Z,55.70
2018-07-28T11:38:06.694Z,56.20
2018-07-28T11:38:51.713Z,55.60
2018-07-28T11:39:36.669Z,56.50
2018-07-28T11:41:51.795Z,54.90
2018-07-28T11:42:36.857Z,54.60
2018-07-28T11:43:32.401Z,55.30
2018-07-28T11:44:17.508Z,55.30
2018-07-28T11:44:50.569Z,55.20
2018-07-28T11:45:23.613Z,54.70
2018-07-28T11:45:56.685Z,54.00
2018-07-28T11:46:29.700Z,53.90
2018-07-28T11:47:03.509Z,54.10
2018-07-28T11:47:36.579Z,54.10
2018-07-28T11:48:09.692Z,53.90
2018-07-28T11:48:42.747Z,54.10
2018-07-28T11:49:16.544Z,53.50
2018-07-28T11:49:50.232Z,53.50
2018-07-28T11:50:23.242Z,53.10
2018-07-28T11:50:56.288Z,53.10
2018-07-28T11:51:29.348Z,52.60
2018-07-28T11:52:02.396Z,53.30
2018-07-28T11:52:36.218Z,53.50
2018-07-28T11:53:09.249Z,53.40
2018-07-28T11:53:43.167Z,52.70
2018-07-28T11:54:16.965Z,52.00
2018-07-28T11:54:50.040Z,52.00
2018-07-28T11:55:23.846Z,52.70
2018-07-28T11:55:56.884Z,52.70
2018-07-28T11:56:29.923Z,52.80
2018-07-28T11:57:02.984Z,52.20
2018-07-28T11:57:36.033Z,51.70
2018-07-28T11:58:09.159Z,52.40
2018-07-28T11:58:42.884Z,52.00
2018-07-28T11:59:16.691Z,51.60
2018-07-28T11:59:50.518Z,52.10
2018-07-28T12:00:23.545Z,52.00
2018-07-28T12:00:56.586Z,51.20
2018-07-28T12:01:29.628Z,51.70
2018-07-28T12:02:02.656Z,51.20
2018-07-28T12:02:35.700Z,52.10
2018-07-28T12:03:09.034Z,52.50
2018-07-28T12:03:42.072Z,52.40
2018-07-28T12:04:15.100Z,51.90
2018-07-28T12:04:48.138Z,51.90
2018-07-28T12:05:21.228Z,51.20
2018-07-28T12:05:54.233Z,51.20
2018-07-28T12:06:28.128Z,51.90
2018-07-28T12:07:01.162Z,52.00
2018-07-28T12:07:34.219Z,51.90
2018-07-28T12:08:07.266Z,52.00
2018-07-28T12:08:40.348Z,51.60
2018-07-28T12:09:13.380Z,52.10
2018-07-28T12:09:46.422Z,52.00
2018-07-28T12:10:19.451Z,52.30
2018-07-28T12:10:52.516Z,51.90
2018-07-28T12:11:25.558Z,52.00
2018-07-28T12:11:58.609Z,52.10
2018-07-28T12:12:31.703Z,52.30
2018-07-28T12:13:04.706Z,52.00
2018-07-28T12:13:38.531Z,52.10
2018-07-28T12:14:11.591Z,52.00
2018-07-28T12:14:44.616Z,52.00
2018-07-28T12:15:17.895Z,51.80
2018-07-28T12:15:50.912Z,51.60
2018-07-28T12:16:23.980Z,52.20
2018-07-28T12:16:57.779Z,51.40
2018-07-28T12:17:30.826Z,51.40
2018-07-28T12:18:03.881Z,51.70
2018-07-28T12:18:36.946Z,51.90
2018-07-28T12:19:10.736Z,50.80
2018-07-28T12:19:43.785Z,50.80
2018-07-28T12:20:16.841Z,51.40
2018-07-28T12:20:50.653Z,51.20
2018-07-28T12:21:23.713Z,51.10
2018-07-28T12:21:57.780Z,50.00
2018-07-28T12:22:30.784Z,50.00
2018-07-28T12:23:03.856Z,51.10
2018-07-28T12:23:37.686Z,51.20
2018-07-28T12:24:10.731Z,51.10
2018-07-28T12:24:43.763Z,50.40
2018-07-28T12:25:16.802Z,51.10
2018-07-28T12:25:50.468Z,51.40
2018-07-28T12:26:24.275Z,51.60
2018-07-28T12:26:57.326Z,51.00
2018-07-28T12:27:31.132Z,50.90
2018-07-28T12:28:04.179Z,50.90
2018-07-28T12:28:37.232Z,50.80
2018-07-28T12:29:10.248Z,50.10
2018-07-28T12:29:44.055Z,51.40
2018-07-28T12:30:17.167Z,51.40
2018-07-28T12:30:50.332Z,51.40
2018-07-28T12:31:24.128Z,51.60
2018-07-28T12:31:57.174Z,51.60
2018-07-28T12:32:30.224Z,51.90
2018-07-28T12:33:04.037Z,51.10
2018-07-28T12:33:37.073Z,51.10
2018-07-28T12:34:10.113Z,51.70
2018-07-28T12:34:43.204Z,51.90
2018-07-28T12:35:16.226Z,51.80
2018-07-28T12:35:49.275Z,51.00
2018-07-28T12:36:22.331Z,52.00
2018-07-28T12:36:55.381Z,52.00
2018-07-28T12:37:28.468Z,52.00
2018-07-28T12:38:01.566Z,51.90
2018-07-28T12:38:34.624Z,52.00
2018-07-28T12:39:07.700Z,52.40
2018-07-28T12:39:40.745Z,52.50
2018-07-28T12:40:14.239Z,52.10
2018-07-28T12:40:47.272Z,51.30
2018-07-28T12:41:20.304Z,52.30
2018-07-28T12:41:53.345Z,52.30
2018-07-28T12:42:26.391Z,52.30
2018-07-28T12:43:00.464Z,51.90
2018-07-28T12:43:33.524Z,51.90
2018-07-28T12:44:06.590Z,52.40
2018-07-28T12:44:39.624Z,52.50
2018-07-28T12:45:13.422Z,52.40
2018-07-28T12:45:46.462Z,52.40
2018-07-28T12:46:19.527Z,52.60
2018-07-28T12:46:52.572Z,52.80
2018-07-28T12:47:25.607Z,52.90
2018-07-28T12:47:58.640Z,52.80
2018-07-28T12:48:31.693Z,52.80
2018-07-28T12:49:04.755Z,52.80
2018-07-28T12:49:38.554Z,52.90
2018-07-28T12:50:12.528Z,52.90
2018-07-28T12:50:46.348Z,53.10
2018-07-28T12:51:20.423Z,52.80
2018-07-28T12:51:53.473Z,52.90
2018-07-28T12:52:26.554Z,53.10
2018-07-28T12:52:59.576Z,52.90
2018-07-28T12:53:32.628Z,53.10
2018-07-28T12:54:06.426Z,53.10
2018-07-28T12:54:40.244Z,53.40
2018-07-28T12:55:14.249Z,53.30
2018-07-28T12:55:47.287Z,53.30
2018-07-28T12:56:21.139Z,53.50
2018-07-28T12:56:54.145Z,53.40
2018-07-28T12:57:27.952Z,53.50
2018-07-28T12:58:01.004Z,53.40
2018-07-28T12:58:34.059Z,53.50
2018-07-28T12:59:07.104Z,53.60
2018-07-28T12:59:40.300Z,53.80
2018-07-28T13:00:13.456Z,53.80
2018-07-28T13:00:46.509Z,54.00
2018-07-28T13:01:19.554Z,54.00
2018-07-28T13:01:52.596Z,54.00
2018-07-28T13:02:25.651Z,54.10
2018-07-28T13:02:58.708Z,54.00
2018-07-28T13:03:31.747Z,54.10
2018-07-28T13:04:05.395Z,54.10
2018-07-28T13:04:38.429Z,53.90
2018-07-28T13:05:12.240Z,54.10
2018-07-28T13:05:45.283Z,54.10
2018-07-28T13:06:18.728Z,54.10
2018-07-28T13:06:51.748Z,54.00
2018-07-28T13:07:25.578Z,54.20
2018-07-28T13:07:58.613Z,54.20
2018-07-28T13:08:31.688Z,54.00
2018-07-28T13:09:04.745Z,54.10
2018-07-28T13:09:37.803Z,54.30
2018-07-28T13:10:10.855Z,54.50
2018-07-28T13:10:44.639Z,55.20
2018-07-28T13:11:17.679Z,55.10
2018-07-28T13:11:51.652Z,55.40
2018-07-28T13:12:24.745Z,55.50
2018-07-28T13:12:57.764Z,55.70
2018-07-28T13:13:30.854Z,55.70
2018-07-28T13:14:04.687Z,55.70
2018-07-28T13:14:37.731Z,55.60
2018-07-28T13:15:10.817Z,55.40
2018-07-28T13:15:43.839Z,55.00
2018-07-28T13:16:17.675Z,54.70
2018-07-28T13:16:50.711Z,54.60
2018-07-28T13:17:23.788Z,55.50
2018-07-28T13:17:58.976Z,55.10
2018-07-28T13:18:32.040Z,55.10
2018-07-28T13:19:05.205Z,55.00
2018-07-28T13:19:38.259Z,54.20
2018-07-28T13:20:11.286Z,54.70
2018-07-28T13:20:44.332Z,54.70
2018-07-28T13:21:17.400Z,54.40
2018-07-28T13:21:50.435Z,54.50
2018-07-28T13:22:24.243Z,55.20
2018-07-28T13:22:57.296Z,55.20
2018-07-28T13:23:30.339Z,55.50
2018-07-28T13:24:03.401Z,55.40
2018-07-28T13:24:36.436Z,55.50
2018-07-28T13:25:09.497Z,55.80
2018-07-28T13:25:43.315Z,55.90
2018-07-28T13:26:17.713Z,56.90
2018-07-28T13:26:50.745Z,57.00
2018-07-28T13:27:23.783Z,55.90